createdAt,value
2018-09-19T00:00:07.717Z,59.40
2018-09-19T00:02:38.012Z,58.88
2018-09-19T00:05:08.586Z,59.70
2018-09-19T00:07:39.092Z,60.05
2018-09-19T00:10:10.111Z,60.06
2018-09-19T00:12:40.566Z,59.79
2018-09-19T00:15:11.052Z,59.88
2018-09-19T00:17:41.530Z,59.89
2018-09-19T00:20:11.924Z,60.23
2018-09-19T00:22:42.485Z,60.40
2018-09-19T00:25:12.746Z,60.18
2018-09-19T00:27:43.151Z,60.08
2018-09-19T00:30:13.546Z,60.79
2018-09-19T00:32:44.008Z,60.51
2018-09-19T00:35:14.505Z,61.02
2018-09-19T00:37:44.897Z,60.39
2018-09-19T00:40:15.393Z,60.57
2018-09-19T00:42:45.691Z,61.19
2018-09-19T00:45:22.871Z,60.92
2018-09-19T00:47:53.154Z,62.02
2018-09-19T00:50:23.607Z,61.64
2018-09-19T00:52:53.941Z,62.18
2018-09-19T00:55:24.478Z,62.01
2018-09-19T00:57:54.955Z,62.67
2018-09-19T01:00:25.346Z,62.02
2018-09-19T01:02:55.717Z,63.32
2018-09-19T01:05:26.320Z,63.56
2018-09-19T01:07:56.704Z,62.81
2018-09-19T01:10:27.164Z,63.42
2018-09-19T01:12:57.468Z,63.29
2018-09-19T01:15:27.767Z,64.13
2018-09-19T01:17:58.144Z,64.93
2018-09-19T01:20:28.944Z,64.48
2018-09-19T01:22:59.452Z,64.61
2018-09-19T01:25:29.941Z,64.49
2018-09-19T01:28:00.408Z,65.13
2018-09-19T01:30:31.380Z,65.14
2018-09-19T01:33:01.873Z,65.68
2018-09-19T01:35:32.580Z,65.35
2018-09-19T01:38:03.035Z,65.68
2018-09-19T01:40:33.457Z,65.59
2018-09-19T01:43:03.933Z,66.15
2018-09-19T01:45:34.434Z,66.52
2018-09-19T01:48:05.038Z,65.46
2018-09-19T01:50:35.322Z,66.43
2018-09-19T01:53:05.783Z,66.79
2018-09-19T01:55:36.234Z,66.35
2018-09-19T01:58:06.646Z,66.91
2018-09-19T02:00:36.756Z,66.94
2018-09-19T02:03:07.297Z,66.50
2018-09-19T02:05:37.873Z,66.87
2018-09-19T02:08:08.250Z,67.03
2018-09-19T02:10:38.644Z,67.55
2018-09-19T02:13:09.051Z,66.83
2018-09-19T02:15:39.275Z,67.53
2018-09-19T02:18:09.656Z,67.86
2018-09-19T02:20:40.148Z,67.45
2018-09-19T02:23:10.548Z,67.58
2018-09-19T02:25:40.784Z,67.06
2018-09-19T02:28:11.261Z,67.76
2018-09-19T02:30:41.746Z,67.66
2018-09-19T02:33:11.952Z,68.43
2018-09-19T02:35:42.203Z,68.14
2018-09-19T02:38:12.496Z,68.39
2018-09-19T02:40:42.902Z,68.35
2018-09-19T02:43:13.284Z,68.73
2018-09-19T02:45:43.550Z,68.86
2018-09-19T02:48:13.892Z,68.31
2018-09-19T02:50:44.413Z,68.38
2018-09-19T02:53:14.857Z,68.55
2018-09-19T02:55:45.243Z,69.02
2018-09-19T02:58:15.541Z,69.07
2018-09-19T03:00:46.090Z,68.87
2018-09-19T03:03:16.496Z,69.55
2018-09-19T03:05:46.884Z,70.29
2018-09-19T03:08:17.145Z,70.64
2018-09-19T03:10:47.638Z,70.67
2018-09-19T03:13:18.120Z,71.14
2018-09-19T03:15:48.607Z,70.71
2018-09-19T03:18:19.254Z,71.17
2018-09-19T03:20:49.640Z,71.92
2018-09-19T03:23:19.938Z,71.58
2018-09-19T03:25:50.419Z,72.31
2018-09-19T03:28:20.831Z,72.22
2018-09-19T03:30:51.804Z,72.16
2018-09-19T03:33:22.199Z,71.82
2018-09-19T03:35:52.555Z,72.21
2018-09-19T03:38:22.952Z,71.45
2018-09-19T03:40:53.502Z,71.55
2018-09-19T03:43:23.919Z,71.87
2018-09-19T03:45:54.255Z,70.71
2018-09-19T03:48:24.649Z,71.00
2018-09-19T03:50:55.151Z,70.88
2018-09-19T03:53:26.049Z,70.25
2018-09-19T03:55:56.543Z,70.96
2018-09-19T03:58:27.140Z,70.83
2018-09-19T04:00:58.345Z,70.36
2018-09-19T04:03:28.675Z,70.50
2018-09-19T04:05:59.201Z,70.75
2018-09-19T04:08:29.427Z,70.62
2018-09-19T04:10:59.788Z,70.41
2018-09-19T04:13:30.072Z,70.63
2018-09-19T04:16:00.261Z,71.50
2018-09-19T04:18:30.639Z,70.79
2018-09-19T04:21:01.100Z,71.25
2018-09-19T04:23:31.331Z,71.25
2018-09-19T04:26:01.819Z,71.37
2018-09-19T04:28:32.181Z,70.26
2018-09-19T04:31:02.570Z,71.20
2018-09-19T04:33:32.900Z,71.64
2018-09-19T04:36:03.529Z,71.03
2018-09-19T04:38:34.009Z,71.16
2018-09-19T04:41:04.093Z,71.19
2018-09-19T04:43:34.172Z,72.19
2018-09-19T04:46:04.329Z,71.39
2018-09-19T04:48:34.393Z,71.56
2018-09-19T04:51:04.526Z,71.87
2018-09-19T04:53:34.635Z,71.69
2018-09-19T04:56:05.146Z,71.13
2018-09-19T04:58:35.584Z,71.59
2018-09-19T05:01:06.299Z,71.46
2018-09-19T05:03:36.792Z,72.27
2018-09-19T05:06:07.452Z,71.96
2018-09-19T05:08:38.049Z,71.55
2018-09-19T05:11:08.395Z,71.03
2018-09-19T05:13:38.625Z,71.02
2018-09-19T05:16:09.272Z,71.50
2018-09-19T05:18:39.566Z,71.40
2018-09-19T05:21:09.984Z,71.34
2018-09-19T05:23:40.220Z,70.82
2018-09-19T05:26:10.666Z,70.35
2018-09-19T05:28:41.365Z,70.97
2018-09-19T05:31:11.928Z,69.83
2018-09-19T05:33:42.373Z,70.42
2018-09-19T05:36:12.684Z,69.03
2018-09-19T05:38:42.984Z,69.16
2018-09-19T05:41:13.314Z,68.18
2018-09-19T05:43:43.638Z,68.12
2018-09-19T05:46:14.259Z,68.37
2018-09-19T05:48:44.649Z,64.76
2018-09-19T05:51:15.203Z,60.41
2018-09-19T05:53:45.708Z,57.13
2018-09-19T05:56:16.200Z,54.97
2018-09-19T05:58:46.660Z,53.65
2018-09-19T06:01:17.036Z,53.29
2018-09-19T06:03:47.883Z,51.16
2018-09-19T06:06:18.320Z,50.12
2018-09-19T06:08:49.691Z,48.84
2018-09-19T06:11:19.983Z,48.05
2018-09-19T06:13:51.296Z,47.42
2018-09-19T06:16:21.640Z,47.38
2018-09-19T06:18:52.317Z,46.43
2018-09-19T06:21:22.747Z,45.73
2018-09-19T06:23:53.142Z,45.01
2018-09-19T06:26:23.724Z,45.05
2018-09-19T06:28:54.227Z,44.34
2018-09-19T06:31:25.267Z,43.17
2018-09-19T06:33:55.631Z,44.31
2018-09-19T06:36:26.048Z,42.73
2018-09-19T06:38:56.304Z,41.76
2018-09-19T06:41:26.766Z,43.08
2018-09-19T06:43:57.166Z,41.43
2018-09-19T06:46:27.688Z,40.36
2018-09-19T06:48:58.054Z,39.12
2018-09-19T06:51:28.639Z,39.57
2018-09-19T06:53:59.089Z,42.34
2018-09-19T06:56:29.563Z,44.02
2018-09-19T06:58:59.881Z,42.16
2018-09-19T07:01:30.297Z,41.56
2018-09-19T07:04:00.597Z,39.65
2018-09-19T07:06:30.962Z,38.33
2018-09-19T07:09:01.280Z,38.47
2018-09-19T07:11:31.791Z,37.30
2018-09-19T07:14:02.300Z,37.63
2018-09-19T07:16:33.090Z,35.84
2018-09-19T07:19:03.584Z,35.85
2018-09-19T07:21:33.875Z,36.57
2018-09-19T07:24:04.305Z,36.52
2018-09-19T07:26:34.621Z,36.89
2018-09-19T07:29:05.180Z,37.10
2018-09-19T07:31:35.684Z,37.86
2018-09-19T07:34:06.288Z,36.99
2018-09-19T07:36:37.488Z,35.30
2018-09-19T07:39:11.468Z,36.60
2018-09-19T07:41:41.904Z,35.67
2018-09-19T07:44:12.431Z,35.16
2018-09-19T07:46:43.053Z,35.22
2018-09-19T07:49:13.468Z,35.29
2018-09-19T07:51:43.839Z,35.70
2018-09-19T07:54:14.151Z,35.67
2018-09-19T07:56:44.553Z,34.98
2018-09-19T07:59:15.095Z,35.08
2018-09-19T08:01:45.554Z,34.58
2018-09-19T08:04:16.059Z,36.04
2018-09-19T08:06:46.560Z,36.47
2018-09-19T08:09:17.129Z,36.26
2018-09-19T08:11:47.620Z,35.29
2018-09-19T08:14:18.040Z,35.84
2018-09-19T08:16:48.451Z,35.59
2018-09-19T08:19:18.804Z,35.73
2018-09-19T08:21:49.316Z,36.66
2018-09-19T08:24:19.668Z,35.60
2018-09-19T08:26:50.083Z,36.12
2018-09-19T08:29:20.518Z,36.43
2018-09-19T08:31:50.826Z,37.26
2018-09-19T08:34:21.409Z,38.15
2018-09-19T08:36:51.879Z,37.47
2018-09-19T08:39:22.259Z,35.44
2018-09-19T08:41:52.741Z,34.98
2018-09-19T08:44:23.196Z,35.33
2018-09-19T08:46:53.583Z,36.75
2018-09-19T08:49:23.981Z,36.76
2018-09-19T08:51:54.468Z,38.13
2018-09-19T08:54:24.897Z,35.82
2018-09-19T08:56:55.235Z,36.54
2018-09-19T08:59:25.698Z,38.93
2018-09-19T09:01:56.099Z,38.56
2018-09-19T09:04:26.457Z,38.29
2018-09-19T09:06:56.727Z,37.30
2018-09-19T09:09:27.164Z,37.43
2018-09-19T09:11:57.462Z,37.68
2018-09-19T09:14:27.932Z,36.93
2018-09-19T09:16:58.343Z,38.03
2018-09-19T09:19:28.700Z,36.87
2018-09-19T09:21:59.048Z,37.45
2018-09-19T09:24:29.494Z,36.26
2018-09-19T09:26:59.980Z,36.32
2018-09-19T09:29:30.342Z,36.49
2018-09-19T09:32:00.844Z,35.92
2018-09-19T09:34:31.509Z,36.55
2018-09-19T09:37:01.924Z,37.21
2018-09-19T09:39:32.251Z,36.67
2018-09-19T09:42:02.544Z,36.79
2018-09-19T09:44:32.922Z,36.10
2018-09-19T09:47:03.144Z,36.08
2018-09-19T09:49:33.337Z,36.65
2018-09-19T09:52:03.836Z,38.19
2018-09-19T09:54:34.217Z,37.27
2018-09-19T09:57:05.366Z,37.42
2018-09-19T09:59:35.693Z,36.48
2018-09-19T10:02:06.026Z,37.50
2018-09-19T10:04:36.344Z,37.70
2018-09-19T10:07:07.078Z,37.81
2018-09-19T10:09:37.673Z,38.96
2018-09-19T10:12:08.146Z,38.86
2018-09-19T10:14:38.543Z,38.83
2018-09-19T10:17:09.131Z,39.40
2018-09-19T10:19:39.370Z,38.05
2018-09-19T10:22:09.841Z,39.03
2018-09-19T10:24:40.212Z,40.11
2018-09-19T10:27:11.433Z,39.28
2018-09-19T10:29:41.954Z,39.25
2018-09-19T10:32:12.636Z,38.37
2018-09-19T10:34:42.955Z,39.09
2018-09-19T10:37:13.420Z,39.57
2018-09-19T10:39:43.868Z,38.96
2018-09-19T10:42:14.196Z,39.85
2018-09-19T10:44:44.646Z,39.16
2018-09-19T10:47:15.093Z,37.67
2018-09-19T10:49:45.435Z,38.15
2018-09-19T10:52:15.737Z,36.66
2018-09-19T10:54:46.155Z,37.04
2018-09-19T10:57:16.584Z,37.08
2018-09-19T10:59:47.051Z,36.69
2018-09-19T11:02:18.637Z,37.42
2018-09-19T11:04:48.904Z,37.06
2018-09-19T11:07:19.413Z,36.67
2018-09-19T11:09:50.045Z,35.82
2018-09-19T11:12:20.551Z,35.85
2018-09-19T11:14:50.813Z,35.64
2018-09-19T11:17:21.191Z,34.88
2018-09-19T11:19:51.656Z,36.69
2018-09-19T11:22:22.063Z,36.68
2018-09-19T11:24:52.619Z,36.19
2018-09-19T11:27:23.028Z,36.27
2018-09-19T11:29:53.504Z,35.39
2018-09-19T11:32:23.761Z,35.73
2018-09-19T11:34:54.216Z,35.98
2018-09-19T11:37:24.538Z,34.72
2018-09-19T11:39:55.103Z,35.75
2018-09-19T11:42:25.574Z,35.42
2018-09-19T11:44:55.950Z,35.88
2018-09-19T11:47:26.183Z,36.53
2018-09-19T11:49:56.633Z,34.85
2018-09-19T11:52:27.136Z,35.58
2018-09-19T11:54:57.592Z,35.32
2018-09-19T11:57:27.960Z,34.47
2018-09-19T11:59:58.472Z,35.27
2018-09-19T12:02:28.857Z,35.47
2018-09-19T12:04:59.238Z,35.01
2018-09-19T12:07:29.471Z,34.39
2018-09-19T12:09:59.968Z,35.12
2018-09-19T12:12:30.407Z,34.54
2018-09-19T12:15:01.160Z,35.31
2018-09-19T12:17:31.665Z,34.92
2018-09-19T12:20:02.227Z,34.69
2018-09-19T12:22:32.484Z,34.92
2018-09-19T12:25:02.899Z,33.89
2018-09-19T12:27:33.447Z,35.02
2018-09-19T12:30:04.072Z,34.29
2018-09-19T12:32:35.276Z,35.37
2018-09-19T12:35:05.928Z,34.93
2018-09-19T12:37:36.340Z,35.00
2018-09-19T12:40:07.129Z,35.14
2018-09-19T12:42:37.629Z,35.10
2018-09-19T12:45:09.719Z,34.03
2018-09-19T12:47:39.998Z,34.77
2018-09-19T12:50:10.383Z,34.45
2018-09-19T12:52:40.740Z,34.16
2018-09-19T12:55:11.265Z,35.03
2018-09-19T12:57:41.641Z,34.47
2018-09-19T13:00:12.098Z,34.66
2018-09-19T13:02:42.420Z,33.83
2018-09-19T13:05:12.933Z,34.11
2018-09-19T13:07:43.407Z,33.41
2018-09-19T13:10:13.893Z,33.63
2018-09-19T13:12:44.487Z,34.00
2018-09-19T13:15:14.812Z,34.25
2018-09-19T13:17:45.258Z,34.56
2018-09-19T13:20:15.549Z,34.37
2018-09-19T13:22:46.509Z,34.23
2018-09-19T13:25:17.025Z,35.02
2018-09-19T13:27:47.316Z,35.17
2018-09-19T13:30:17.820Z,34.72
2018-09-19T13:32:48.080Z,35.16
2018-09-19T13:35:18.452Z,35.19
2018-09-19T13:37:48.923Z,35.29
2018-09-19T13:40:19.514Z,35.23
2018-09-19T13:42:49.983Z,34.78
2018-09-19T13:45:20.153Z,35.77
2018-09-19T13:47:50.527Z,36.44
2018-09-19T13:50:39.929Z,35.33
2018-09-19T13:53:10.690Z,35.81
2018-09-19T13:55:41.024Z,35.85
2018-09-19T13:58:13.204Z,35.16
2018-09-19T14:00:43.591Z,36.11
2018-09-19T14:03:14.079Z,35.12
2018-09-19T14:05:44.412Z,35.38
2018-09-19T14:08:14.737Z,34.93
2018-09-19T14:10:45.411Z,35.94
2018-09-19T14:13:16.124Z,35.43
2018-09-19T14:15:46.688Z,35.86
2018-09-19T14:18:17.274Z,36.53
2018-09-19T14:20:47.555Z,37.02
2018-09-19T14:23:17.912Z,35.80
2018-09-19T14:25:48.399Z,37.23
2018-09-19T14:28:18.799Z,36.46
2018-09-19T14:30:49.981Z,36.45
2018-09-19T14:33:20.435Z,35.95
2018-09-19T14:35:50.968Z,37.28
2018-09-19T14:38:21.425Z,37.43
2018-09-19T14:40:51.867Z,36.33
2018-09-19T14:43:22.211Z,37.21
2018-09-19T14:45:53.004Z,36.71
2018-09-19T14:48:23.494Z,37.06
2018-09-19T14:50:54.007Z,37.58
2018-09-19T14:53:24.383Z,37.66
2018-09-19T14:55:54.662Z,37.43
2018-09-19T14:58:25.022Z,37.73
2018-09-19T15:00:55.324Z,36.96
2018-09-19T15:03:25.704Z,36.73
2018-09-19T15:05:56.195Z,37.09
2018-09-19T15:08:26.653Z,36.66
2018-09-19T15:10:57.054Z,36.66
2018-09-19T15:13:27.537Z,36.58
2018-09-19T15:15:58.040Z,38.01
2018-09-19T15:18:28.551Z,37.64
2018-09-19T15:20:58.945Z,37.62
2018-09-19T15:23:29.206Z,37.35
2018-09-19T15:25:59.553Z,38.01
2018-09-19T15:28:30.153Z,38.06
2018-09-19T15:31:00.600Z,37.96
2018-09-19T15:33:30.822Z,37.66
2018-09-19T15:36:01.338Z,38.13
2018-09-19T15:38:31.872Z,37.78
2018-09-19T15:41:02.415Z,37.22
2018-09-19T15:43:32.970Z,38.75
2018-09-19T15:46:03.375Z,37.81
2018-09-19T15:48:33.662Z,37.90
2018-09-19T15:51:03.928Z,38.63
2018-09-19T15:53:34.376Z,37.51
2018-09-19T15:56:04.729Z,37.81
2018-09-19T15:58:35.112Z,37.35
2018-09-19T16:01:05.622Z,38.43
2018-09-19T16:03:35.948Z,38.38
2018-09-19T16:06:06.462Z,38.54
2018-09-19T16:08:36.839Z,38.58
2018-09-19T16:11:07.927Z,39.38
2018-09-19T16:13:38.430Z,38.72
2018-09-19T16:16:09.571Z,38.40
2018-09-19T16:18:40.019Z,39.35
2018-09-19T16:21:10.624Z,38.58
2018-09-19T16:23:40.946Z,39.68
2018-09-19T16:26:11.403Z,39.12
2018-09-19T16:28:41.807Z,39.42
2018-09-19T16:31:12.230Z,40.20
2018-09-19T16:33:42.735Z,39.48
2018-09-19T16:36:13.330Z,40.75
2018-09-19T16:38:43.684Z,40.76
2018-09-19T16:41:13.971Z,40.40
2018-09-19T16:43:44.460Z,40.08
2018-09-19T16:46:14.856Z,40.56
2018-09-19T16:48:45.296Z,41.17
2018-09-19T16:51:15.688Z,40.87
2018-09-19T16:53:46.159Z,42.00
2018-09-19T16:56:16.702Z,41.56
2018-09-19T16:58:47.133Z,42.30
2018-09-19T17:01:17.569Z,43.16
2018-09-19T17:03:48.070Z,42.48
2018-09-19T17:06:18.424Z,42.94
2018-09-19T17:08:48.800Z,43.06
2018-09-19T17:11:19.301Z,43.39
2018-09-19T17:13:50.184Z,44.17
2018-09-19T17:16:20.926Z,44.20
2018-09-19T17:18:51.364Z,44.90
2018-09-19T17:21:21.971Z,45.55
2018-09-19T17:23:52.362Z,45.31
2018-09-19T17:26:22.661Z,45.41
2018-09-19T17:28:53.072Z,46.10
2018-09-19T17:31:23.526Z,46.21
2018-09-19T17:33:53.992Z,46.24
2018-09-19T17:36:24.233Z,46.47
2018-09-19T17:38:54.653Z,47.14
2018-09-19T17:41:25.159Z,47.47
2018-09-19T17:43:55.682Z,47.34
2018-09-19T17:46:25.882Z,48.56
2018-09-19T17:48:56.389Z,48.06
2018-09-19T17:51:27.000Z,48.73
2018-09-19T17:53:57.539Z,47.96
2018-09-19T17:56:27.999Z,48.09
2018-09-19T17:58:58.391Z,48.58
2018-09-19T18:01:28.807Z,48.77
2018-09-19T18:03:59.399Z,48.93
2018-09-19T18:06:29.889Z,49.70
2018-09-19T18:09:00.196Z,49.77
2018-09-19T18:11:30.596Z,50.31
2018-09-19T18:14:01.058Z,50.45
2018-09-19T18:16:31.604Z,50.33
2018-09-19T18:19:02.006Z,50.75
2018-09-19T18:21:32.584Z,50.57
2018-09-19T18:24:02.857Z,50.45
2018-09-19T18:26:33.304Z,52.13
2018-09-19T18:29:03.682Z,51.88
2018-09-19T18:31:34.252Z,51.43
2018-09-19T18:34:04.748Z,51.03
2018-09-19T18:36:35.038Z,50.92
2018-09-19T18:39:06.357Z,51.68
2018-09-19T18:41:37.388Z,51.14
2018-09-19T18:44:07.994Z,51.45
2018-09-19T18:46:38.500Z,51.44
2018-09-19T18:49:08.891Z,52.22
2018-09-19T18:51:39.460Z,52.37
2018-09-19T18:54:09.936Z,52.57
2018-09-19T18:56:40.508Z,51.73
2018-09-19T18:59:10.973Z,52.29
2018-09-19T19:01:41.451Z,52.16
2018-09-19T19:04:12.327Z,52.34
2018-09-19T19:06:42.918Z,52.47
2018-09-19T19:09:13.871Z,52.68
2018-09-19T19:11:44.520Z,53.66
2018-09-19T19:14:15.347Z,53.49
2018-09-19T19:16:45.949Z,53.07
2018-09-19T19:19:16.562Z,53.21
2018-09-19T19:21:47.150Z,53.93
2018-09-19T19:24:17.652Z,53.54
2018-09-19T19:26:48.232Z,53.66
2018-09-19T19:29:18.482Z,52.87
2018-09-19T19:31:48.920Z,53.61
2018-09-19T19:34:19.308Z,53.09
2018-09-19T19:36:49.924Z,52.59
2018-09-19T19:39:20.436Z,52.69
2018-09-19T19:41:50.935Z,51.87
2018-09-19T19:44:21.190Z,52.11
2018-09-19T19:46:51.499Z,52.90
2018-09-19T19:49:22.063Z,52.84
2018-09-19T19:51:52.573Z,52.62
2018-09-19T19:54:22.914Z,53.61
2018-09-19T19:56:53.255Z,53.16
2018-09-19T19:59:23.736Z,53.94
2018-09-19T20:01:54.101Z,54.52
2018-09-19T20:04:24.506Z,54.45
2018-09-19T20:06:54.963Z,54.10
2018-09-19T20:09:25.226Z,54.22
2018-09-19T20:11:55.622Z,55.04
2018-09-19T20:14:25.921Z,55.42
2018-09-19T20:16:56.385Z,54.97
2018-09-19T20:19:27.145Z,56.08
2018-09-19T20:21:57.524Z,56.32
2018-09-19T20:24:27.780Z,56.05
2018-09-19T20:26:59.000Z,56.63
2018-09-19T20:29:29.259Z,57.89
2018-09-19T20:31:59.649Z,57.14
2018-09-19T20:34:30.371Z,57.65
2018-09-19T20:37:00.980Z,57.09
2018-09-19T20:39:31.587Z,58.37
2018-09-19T20:42:01.904Z,57.95
2018-09-19T20:44:32.285Z,57.92
2018-09-19T20:47:02.790Z,58.70
2018-09-19T20:49:33.302Z,58.41
2018-09-19T20:52:03.813Z,59.14
2018-09-19T20:54:34.403Z,58.72
2018-09-19T20:57:04.997Z,58.18
2018-09-19T20:59:35.585Z,58.74
2018-09-19T21:02:06.060Z,58.81
2018-09-19T21:04:36.515Z,58.41
2018-09-19T21:07:07.001Z,58.84
2018-09-19T21:09:37.960Z,59.10
2018-09-19T21:12:08.375Z,59.57
2018-09-19T21:14:38.730Z,59.85
2018-09-19T21:17:09.279Z,59.30
2018-09-19T21:19:39.796Z,58.95
2018-09-19T21:22:10.228Z,59.65
2018-09-19T21:24:40.631Z,59.26
2018-09-19T21:27:10.973Z,58.94
2018-09-19T21:29:41.358Z,59.81
2018-09-19T21:32:12.047Z,59.43
2018-09-19T21:34:42.426Z,59.13
2018-09-19T21:37:12.776Z,59.00
2018-09-19T21:39:43.347Z,59.41
2018-09-19T21:42:13.745Z,59.66
2018-09-19T21:44:44.156Z,59.02
2018-09-19T21:47:14.524Z,58.62
2018-09-19T21:49:44.798Z,59.07
2018-09-19T21:52:15.172Z,58.86
2018-09-19T21:54:45.767Z,58.04
2018-09-19T21:57:16.208Z,58.09
2018-09-19T21:59:46.682Z,58.63
2018-09-19T22:02:18.387Z,58.68
2018-09-19T22:04:49.435Z,58.24
2018-09-19T22:07:19.860Z,58.12
2018-09-19T22:09:50.230Z,57.97
2018-09-19T22:12:20.643Z,58.76
2018-09-19T22:14:50.997Z,58.20
2018-09-19T22:17:21.435Z,58.49
2018-09-19T22:19:52.080Z,59.04
2018-09-19T22:22:22.471Z,59.24
2018-09-19T22:24:52.967Z,60.07
2018-09-19T22:27:23.484Z,60.00
2018-09-19T22:29:53.845Z,61.06
2018-09-19T22:32:24.326Z,60.89
2018-09-19T22:34:54.739Z,60.77
2018-09-19T22:37:25.243Z,60.47
2018-09-19T22:39:55.825Z,60.70
2018-09-19T22:42:26.646Z,60.41
2018-09-19T22:44:57.199Z,61.47
2018-09-19T22:47:27.688Z,60.94
2018-09-19T22:49:58.152Z,61.10
2018-09-19T22:52:28.512Z,61.84
2018-09-19T22:54:58.980Z,61.99
2018-09-19T22:57:29.563Z,61.62
2018-09-19T22:59:59.900Z,62.34
2018-09-19T23:02:30.252Z,62.01
2018-09-19T23:05:00.524Z,61.36
2018-09-19T23:07:30.955Z,61.99
2018-09-19T23:10:01.462Z,62.19
2018-09-19T23:12:31.817Z,62.79
2018-09-19T23:15:02.060Z,62.26
2018-09-19T23:17:32.342Z,62.96
2018-09-19T23:20:02.785Z,63.20
2018-09-19T23:22:32.991Z,62.66
2018-09-19T23:25:03.389Z,63.34
2018-09-19T23:27:33.718Z,62.40
2018-09-19T23:30:04.180Z,62.68
2018-09-19T23:32:34.535Z,63.08
2018-09-19T23:35:05.051Z,62.63
2018-09-19T23:37:35.510Z,63.07
2018-09-19T23:40:06.195Z,62.55
2018-09-19T23:42:36.868Z,63.01
2018-09-19T23:45:07.745Z,63.34
2018-09-19T23:47:38.075Z,63.49
2018-09-19T23:50:08.580Z,63.38
2018-09-19T23:52:38.907Z,63.38
2018-09-19T23:55:09.309Z,64.06
2018-09-19T23:57:39.671Z,63.85
